Time,TemperatureF,DewpointF,PressureIn,WindDirection,WindDirectionDegrees,WindSpeedMPH,WindSpeedGustMPH,Humidity,HourlyPrecipIn,Conditions,Clouds,dailyrainin,SoftwareType,DateUTC
2013-02-11 00:00:00,34.5,-99.9,29.94,South,173,2.8,4.0,-999,0.00,,,-99.99,perl,2013-02-11 05:00:00,
2013-02-11 00:01:00,34.5,-99.9,29.94,South,179,2.9,4.0,-999,0.00,,,-99.99,perl,2013-02-11 05:01:00,
2013-02-11 00:02:00,34.5,-99.9,29.94,South,179,2.9,4.0,-999,0.00,,,-99.99,perl,2013-02-11 05:02:00,
2013-02-11 00:04:00,34.9,-99.9,29.94,SSE,151,3.9,5.4,-999,0.00,,,-99.99,perl,2013-02-11 05:04:00,
2013-02-11 00:09:00,34.9,-99.9,29.94,South,169,1.1,0.0,-999,0.00,,,-99.99,perl,2013-02-11 05:09:00,
2013-02-11 00:14:00,35.1,-99.9,29.94,SSE,150,3.7,5.4,-999,0.00,,,-99.99,perl,2013-02-11 05:14:00,
2013-02-11 00:19:00,35.2,-99.9,29.94,SSE,153,3.4,5.4,-999,0.00,,,-99.99,perl,2013-02-11 05:19:00,
2013-02-11 00:24:00,35.2,-99.9,29.94,SSE,160,0.0,0.0,-999,0.00,,,-99.99,perl,2013-02-11 05:24:00,
2013-02-11 00:29:00,35.1,-99.9,29.91,SSE,155,1.8,4.0,-999,0.00,,,-99.99,perl,2013-02-11 05:29:00,
2013-02-11 00:34:00,35.1,-99.9,29.91,SSE,154,1.3,0.0,-999,0.00,,,-99.99,perl,2013-02-11 05:34:00,
2013-02-11 00:39:00,35.2,-99.9,29.91,SSE,166,3.0,3.6,-999,0.00,,,-99.99,perl,2013-02-11 05:39:00,
2013-02-11 00:45:00,35.2,-99.9,29.91,South,172,3.4,4.5,-999,0.00,,,-99.99,perl,2013-02-11 05:45:00,
2013-02-11 00:51:00,35.4,-99.9,29.91,SE,145,3.6,4.0,-999,0.00,,,-99.99,perl,2013-02-11 05:51:00,
2013-02-11 00:56:00,35.6,-99.9,29.91,SSE,160,2.4,4.0,-999,0.00,,,-99.99,perl,2013-02-11 05:56:00,
2013-02-11 01:01:00,35.6,-99.9,29.91,SSE,156,1.6,4.0,-999,0.00,,,-99.99,perl,2013-02-11 06:01:00,
2013-02-11 01:06:00,35.4,-99.9,29.91,SSE,157,0.0,0.0,-999,0.00,,,-99.99,perl,2013-02-11 06:06:00,
2013-02-11 01:11:00,35.4,-99.9,29.91,SSE,153,0.0,0.0,-999,0.00,,,-99.99,perl,2013-02-11 06:11:00,
2013-02-11 01:17:00,35.6,-99.9,29.88,South,186,0.0,0.0,-999,0.00,,,-99.99,perl,2013-02-11 06:17:00,
2013-02-11 01:22:00,35.6,-99.9,29.88,SSE,148,0.0,3.6,-999,0.00,,,-99.99,perl,2013-02-11 06:22:00,
2013-02-11 01:27:00,35.6,-99.9,29.88,SSE,158,0.0,0.0,-999,0.00,,,-99.99,perl,2013-02-11 06:27:00,
2013-02-11 01:32:00,35.8,-99.9,29.88,SSE,150,3.1,4.0,-999,0.00,,,-99.99,perl,2013-02-11 06:32:00,
2013-02-11 01:37:00,36.1,-99.9,29.88,SSE,149,3.4,4.0,-999,0.00,,,-99.99,perl,2013-02-11 06:37:00,
2013-02-11 01:42:00,36.0,-99.9,29.88,SSE,159,3.3,4.0,-999,0.00,,,-99.99,perl,2013-02-11 06:42:00,
2013-02-11 01:48:00,36.3,-99.9,29.85,SSE,163,3.6,4.5,-999,0.00,,,-99.99,perl,2013-02-11 06:48:00,
2013-02-11 01:53:00,36.1,-99.9,29.85,South,185,0.0,0.0,-999,0.00,,,-99.99,perl,2013-02-11 06:53:00,
2013-02-11 01:59:00,35.8,-99.9,29.85,SE,146,0.0,0.0,-999,0.00,,,-99.99,perl,2013-02-11 06:59:00,
2013-02-11 02:04:00,36.3,-99.9,29.85,South,174,1.1,0.0,-999,0.00,,,-99.99,perl,2013-02-11 07:04:00,
2013-02-11 02:09:00,36.3,-99.9,29.85,South,180,0.0,0.0,-999,0.00,,,-99.99,perl,2013-02-11 07:09:00,
2013-02-11 02:14:00,36.7,-99.9,29.85,SSE,152,3.6,4.0,-999,0.00,,,-99.99,perl,2013-02-11 07:14:00,
2013-02-11 02:20:00,37.0,-99.9,29.85,SE,139,2.6,3.1,-999,0.00,,,-99.99,perl,2013-02-11 07:20:00,
2013-02-11 02:26:00,37.0,-99.9,29.85,SSE,160,0.0,0.0,-999,0.00,,,-99.99,perl,2013-02-11 07:26:00,
2013-02-11 02:32:00,36.9,-99.9,29.85,SSE,157,0.0,0.0,-999,0.00,,,-99.99,perl,2013-02-11 07:32:00,
2013-02-11 02:37:00,36.7,-99.9,29.85,SSE,159,3.6,4.9,-999,0.00,,,-99.99,perl,2013-02-11 07:37:00,
2013-02-11 02:42:00,36.7,-99.9,29.85,SSE,165,0.0,3.1,-999,0.00,,,-99.99,perl,2013-02-11 07:42:00,
2013-02-11 02:47:00,36.9,-99.9,29.85,SE,141,0.0,0.0,-999,0.00,,,-99.99,perl,2013-02-11 07:47:00,
2013-02-11 02:52:00,36.9,-99.9,29.85,SSE,158,2.9,3.6,-999,0.00,,,-99.99,perl,2013-02-11 07:52:00,
2013-02-11 02:57:00,36.3,-99.9,29.85,SSE,159,2.5,4.0,-999,0.00,,,-99.99,perl,2013-02-11 07:57:00,
2013-02-11 03:02:00,36.7,-99.9,29.82,SSE,153,2.8,3.6,-999,0.00,,,-99.99,perl,2013-02-11 08:02:00,
2013-02-11 03:07:00,37.0,-99.9,29.82,SE,141,3.1,4.9,-999,0.00,,,-99.99,perl,2013-02-11 08:07:00,
2013-02-11 03:13:00,36.7,-99.9,29.82,South,169,0.0,0.0,-999,0.00,,,-99.99,perl,2013-02-11 08:13:00,
2013-02-11 03:18:00,36.5,-99.9,29.82,SE,137,0.0,0.0,-999,0.00,,,-99.99,perl,2013-02-11 08:18:00,
2013-02-11 03:23:00,37.0,-99.9,29.82,SSE,154,4.3,5.8,-999,0.00,,,-99.99,perl,2013-02-11 08:23:00,
2013-02-11 03:28:00,36.9,-99.9,29.82,South,171,3.8,5.4,-999,0.00,,,-99.99,perl,2013-02-11 08:28:00,
2013-02-11 03:33:00,36.9,-99.9,29.82,SSE,160,4.3,6.7,-999,0.00,,,-99.99,perl,2013-02-11 08:33:00,
2013-02-11 03:38:00,36.7,-99.9,29.82,South,174,2.7,3.6,-999,0.00,,,-99.99,perl,2013-02-11 08:38:00,
2013-02-11 03:43:00,36.5,-99.9,29.82,SSE,166,3.4,4.0,-999,0.00,,,-99.99,perl,2013-02-11 08:43:00,
2013-02-11 03:50:00,36.5,-99.9,29.82,South,176,4.3,5.4,-999,0.00,,,-99.99,perl,2013-02-11 08:50:00,
2013-02-11 03:55:00,36.7,-99.9,29.82,SSW,197,3.6,4.0,-999,0.00,,,-99.99,perl,2013-02-11 08:55:00,
2013-02-11 04:00:00,36.3,-99.9,29.82,South,169,3.8,6.3,-999,0.00,,,-99.99,perl,2013-02-11 09:00:00,
2013-02-11 04:05:00,36.3,-99.9,29.82,SSE,165,3.4,5.4,-999,0.00,,,-99.99,perl,2013-02-11 09:05:00,
2013-02-11 04:10:00,36.0,-99.9,29.82,SSE,168,3.6,5.4,-999,0.00,,,-99.99,perl,2013-02-11 09:10:00,
2013-02-11 04:16:00,35.8,-99.9,29.79,SSE,162,3.6,5.4,-999,0.00,,,-99.99,perl,2013-02-11 09:16:00,
2013-02-11 04:21:00,36.0,-99.9,29.79,SSE,160,4.2,4.9,-999,0.00,,,-99.99,perl,2013-02-11 09:21:00,
2013-02-11 04:27:00,35.6,-99.9,29.79,SE,141,3.4,4.0,-999,0.00,,,-99.99,perl,2013-02-11 09:27:00,
2013-02-11 04:32:00,35.4,-99.9,29.79,SE,128,0.0,0.0,-999,0.00,,,-99.99,perl,2013-02-11 09:32:00,
2013-02-11 04:37:00,35.1,-99.9,29.79,SE,138,2.7,3.1,-999,0.00,,,-99.99,perl,2013-02-11 09:37:00,
2013-02-11 04:43:00,34.5,-99.9,29.79,SSE,151,3.1,3.6,-999,0.00,,,-99.99,perl,2013-02-11 09:43:00,
2013-02-11 04:48:00,34.9,-99.9,29.76,SSE,147,3.8,4.9,-999,0.00,,,-99.99,perl,2013-02-11 09:48:00,
2013-02-11 04:53:00,35.1,-99.9,29.76,SSE,162,3.6,4.5,-999,0.00,,,-99.99,perl,2013-02-11 09:53:00,
2013-02-11 04:58:00,35.1,-99.9,29.76,SSE,163,4.0,4.5,-999,0.00,,,-99.99,perl,2013-02-11 09:58:00,
2013-02-11 05:04:00,35.2,-99.9,29.76,SSE,156,3.1,3.6,-999,0.00,,,-99.99,perl,2013-02-11 10:04:00,
2013-02-11 05:09:00,35.2,-99.9,29.76,SE,145,3.1,3.6,-999,0.00,,,-99.99,perl,2013-02-11 10:09:00,
2013-02-11 05:14:00,35.4,-99.9,29.76,SE,143,3.8,4.0,-999,0.00,,,-99.99,perl,2013-02-11 10:14:00,
2013-02-11 05:19:00,35.4,-99.9,29.76,SSE,166,3.3,4.0,-999,0.00,,,-99.99,perl,2013-02-11 10:19:00,
2013-02-11 05:24:00,35.6,-99.9,29.76,SE,146,3.6,3.6,-999,0.00,,,-99.99,perl,2013-02-11 10:24:00,
2013-02-11 05:29:00,36.0,-99.9,29.73,SSE,156,3.8,4.5,-999,0.00,,,-99.99,perl,2013-02-11 10:29:00,
2013-02-11 05:34:00,36.1,-99.9,29.73,SSE,157,4.3,4.3,-999,0.00,,,-99.99,perl,2013-02-11 10:34:00,
2013-02-11 05:39:00,36.3,-99.9,29.73,SSE,157,3.6,4.0,-999,0.00,,,-99.99,perl,2013-02-11 10:39:00,
2013-02-11 05:44:00,36.7,-99.9,29.76,SSE,160,3.8,4.0,-999,0.00,,,-99.99,perl,2013-02-11 10:44:00,
2013-02-11 05:49:00,37.2,-99.9,29.76,SSE,154,4.0,6.3,-999,0.00,,,-99.99,perl,2013-02-11 10:49:00,
2013-02-11 05:54:00,37.4,-99.9,29.76,SSE,151,3.8,4.9,-999,0.00,,,-99.99,perl,2013-02-11 10:54:00,
2013-02-11 05:59:00,37.4,-99.9,29.73,SSE,161,4.3,5.8,-999,0.00,,,-99.99,perl,2013-02-11 10:59:00,
2013-02-11 06:04:00,37.2,-99.9,29.73,SSE,157,3.3,4.9,-999,0.00,,,-99.99,perl,2013-02-11 11:04:00,
2013-02-11 06:09:00,37.0,-99.9,29.73,SSE,147,1.1,5.8,-999,0.00,,,-99.99,perl,2013-02-11 11:09:00,
2013-02-11 06:14:00,36.7,-99.9,29.73,SSE,164,2.9,4.0,-999,0.00,,,-99.99,perl,2013-02-11 11:14:00,
2013-02-11 06:19:00,36.5,-99.9,29.73,South,172,1.3,0.0,-999,0.00,,,-99.99,perl,2013-02-11 11:19:00,
2013-02-11 06:24:00,36.1,-99.9,29.73,South,179,1.6,4.0,-999,0.00,,,-99.99,perl,2013-02-11 11:24:00,
2013-02-11 06:29:00,36.1,-99.9,29.73,SSW,194,3.2,3.2,-999,0.00,,,-99.99,perl,2013-02-11 11:29:00,
2013-02-11 06:34:00,35.8,-99.9,29.73,South,187,1.3,0.0,-999,0.00,,,-99.99,perl,2013-02-11 11:34:00,
2013-02-11 06:39:00,35.6,-99.9,29.73,SSE,166,0.0,0.0,-999,0.00,,,-99.99,perl,2013-02-11 11:39:00,
2013-02-11 06:44:00,35.6,-99.9,29.73,South,172,2.7,3.1,-999,0.00,,,-99.99,perl,2013-02-11 11:44:00,
2013-02-11 06:49:00,35.6,-99.9,29.73,South,177,0.0,0.0,-999,0.00,,,-99.99,perl,2013-02-11 11:49:00,
2013-02-11 06:55:00,35.4,-99.9,29.73,SSE,147,0.0,0.0,-999,0.00,,,-99.99,perl,2013-02-11 11:55:00,
2013-02-11 07:00:00,35.4,-99.9,29.73,SSE,162,0.0,0.0,-999,0.00,,,-99.99,perl,2013-02-11 12:00:00,
2013-02-11 07:05:00,35.4,32.0,29.73,SE,143,0.0,0.0,88,0.00,,,-99.99,perl,2013-02-11 12:05:00,
2013-02-11 07:10:00,35.6,32.0,29.73,SSE,156,0.0,0.0,87,0.00,,,-99.99,perl,2013-02-11 12:10:00,
2013-02-11 07:15:00,35.4,32.0,29.70,SE,145,0.0,0.0,88,0.00,,,-99.99,perl,2013-02-11 12:15:00,
2013-02-11 07:20:00,35.4,32.0,29.70,SSE,162,0.0,0.0,88,0.00,,,-99.99,perl,2013-02-11 12:20:00,
2013-02-11 07:25:00,35.4,32.0,29.70,SSE,157,0.0,0.0,88,0.00,,,-99.99,perl,2013-02-11 12:25:00,
2013-02-11 07:30:00,35.4,32.0,29.70,South,169,0.0,0.0,88,0.00,,,-99.99,perl,2013-02-11 12:30:00,
2013-02-11 07:35:00,35.4,32.0,29.70,South,178,0.0,0.0,88,0.00,,,-99.99,perl,2013-02-11 12:35:00,
2013-02-11 07:40:00,35.4,32.0,29.70,South,174,0.0,0.0,88,0.00,,,-99.99,perl,2013-02-11 12:40:00,
2013-02-11 07:45:00,35.6,32.0,29.70,South,191,0.0,0.0,87,0.00,,,-99.99,perl,2013-02-11 12:45:00,
2013-02-11 07:50:00,35.8,32.0,29.70,South,186,0.0,0.0,86,0.00,,,-99.99,perl,2013-02-11 12:50:00,
2013-02-11 07:55:00,35.8,32.0,29.70,South,172,0.0,0.0,86,0.00,,,-99.99,perl,2013-02-11 12:55:00,
2013-02-11 08:01:00,36.0,32.0,29.70,South,187,0.0,0.0,85,0.00,,,-99.99,perl,2013-02-11 13:01:00,
2013-02-11 08:06:00,36.1,32.0,29.70,SSW,204,0.0,0.0,85,0.00,,,-99.99,perl,2013-02-11 13:06:00,
2013-02-11 08:11:00,36.3,32.0,29.70,SSE,154,0.0,0.0,85,0.00,,,-99.99,perl,2013-02-11 13:11:00,
2013-02-11 08:16:00,36.3,32.0,29.70,South,190,0.0,0.0,85,0.00,,,-99.99,perl,2013-02-11 13:16:00,
2013-02-11 08:21:00,36.3,32.0,29.70,South,185,0.0,0.0,85,0.00,,,-99.99,perl,2013-02-11 13:21:00,
2013-02-11 08:26:00,36.7,33.8,29.70,South,174,0.0,0.0,89,0.00,,,-99.99,perl,2013-02-11 13:26:00,
2013-02-11 08:31:00,36.7,33.8,29.70,South,177,0.0,0.0,89,0.00,,,-99.99,perl,2013-02-11 13:31:00,
2013-02-11 08:36:00,36.9,33.8,29.70,South,171,0.0,0.0,88,0.00,,,-99.99,perl,2013-02-11 13:36:00,
2013-02-11 08:41:00,37.0,33.8,29.70,South,181,1.1,4.5,88,0.00,,,-99.99,perl,2013-02-11 13:41:00,
2013-02-11 08:46:00,37.2,33.8,29.70,South,191,0.0,0.0,87,0.00,,,-99.99,perl,2013-02-11 13:46:00,
2013-02-11 08:51:00,37.6,32.0,29.70,South,180,2.7,4.0,80,0.00,,,-99.99,perl,2013-02-11 13:51:00,
2013-02-11 08:56:00,37.8,32.0,29.70,SSW,206,0.0,0.0,80,0.00,,,-99.99,perl,2013-02-11 13:56:00,
2013-02-11 09:01:00,37.9,32.0,29.67,South,176,0.0,0.0,80,0.00,,,-99.99,perl,2013-02-11 14:01:00,
2013-02-11 09:06:00,38.1,32.0,29.67,SW,215,2.7,4.9,79,0.00,,,-99.99,perl,2013-02-11 14:06:00,
2013-02-11 09:11:00,38.5,33.8,29.67,SSW,205,1.6,3.1,82,0.00,,,-99.99,perl,2013-02-11 14:11:00,
2013-02-11 09:16:00,38.8,33.8,29.67,SW,225,2.9,5.4,82,0.00,,,-99.99,perl,2013-02-11 14:16:00,
2013-02-11 09:21:00,39.4,33.8,29.67,SSW,207,3.4,6.3,80,0.00,,,-99.99,perl,2013-02-11 14:21:00,
2013-02-11 09:26:00,39.6,33.8,29.67,SW,217,3.1,3.1,79,0.00,,,-99.99,perl,2013-02-11 14:26:00,
2013-02-11 09:31:00,39.7,33.8,29.67,SW,223,2.0,6.3,79,0.00,,,-99.99,perl,2013-02-11 14:31:00,
2013-02-11 09:36:00,39.9,33.8,29.67,SSW,193,2.5,3.6,79,0.00,,,-99.99,perl,2013-02-11 14:36:00,
2013-02-11 09:41:00,40.1,35.6,29.67,South,178,0.0,0.0,84,0.00,,,-99.99,perl,2013-02-11 14:41:00,
2013-02-11 09:46:00,40.5,35.6,29.67,SSW,210,3.6,5.8,83,0.00,,,-99.99,perl,2013-02-11 14:46:00,
2013-02-11 09:52:00,41.5,35.6,29.67,South,185,3.1,3.6,80,0.00,,,-99.99,perl,2013-02-11 14:52:00,
2013-02-11 09:58:00,42.4,35.6,29.67,SSW,200,3.1,4.0,77,0.00,,,-99.99,perl,2013-02-11 14:58:00,
2013-02-11 10:04:00,43.2,35.6,29.64,South,174,3.8,4.9,74,0.00,,,-99.99,perl,2013-02-11 15:04:00,
2013-02-11 10:09:00,43.5,33.8,29.64,South,179,0.0,0.0,68,0.00,,,-99.99,perl,2013-02-11 15:09:00,
2013-02-11 10:14:00,43.9,35.6,29.64,SSW,193,3.8,4.0,72,0.00,,,-99.99,perl,2013-02-11 15:14:00,
2013-02-11 10:19:00,44.1,35.6,29.64,SSW,193,3.4,4.0,72,0.00,,,-99.99,perl,2013-02-11 15:19:00,
2013-02-11 10:24:00,44.4,35.6,29.64,South,185,3.6,5.4,71,0.00,,,-99.99,perl,2013-02-11 15:24:00,
2013-02-11 10:30:00,44.8,33.8,29.64,SSW,202,4.7,4.7,65,0.00,,,-99.99,perl,2013-02-11 15:30:00,
2013-02-11 10:35:00,44.4,33.8,29.64,SSW,195,4.5,6.3,66,0.04,,,-99.99,perl,2013-02-11 15:35:00,
2013-02-11 10:40:00,43.9,35.6,29.64,SSW,192,3.6,4.9,72,0.00,,,-99.99,perl,2013-02-11 15:40:00,
2013-02-11 10:45:00,43.7,35.6,29.64,SSW,197,3.8,4.0,73,0.00,,,-99.99,perl,2013-02-11 15:45:00,
2013-02-11 10:50:00,43.5,33.8,29.64,SSW,209,3.1,4.9,68,0.00,,,-99.99,perl,2013-02-11 15:50:00,
2013-02-11 10:55:00,44.6,35.6,29.64,South,188,4.1,4.1,70,0.00,,,-99.99,perl,2013-02-11 15:55:00,
2013-02-11 11:00:00,45.3,35.6,29.64,South,191,3.4,5.4,69,0.00,,,-99.99,perl,2013-02-11 16:00:00,
2013-02-11 11:06:00,45.9,37.4,29.64,SSW,199,4.9,5.4,72,0.00,,,-99.99,perl,2013-02-11 16:06:00,
2013-02-11 11:11:00,46.2,35.6,29.64,SE,145,4.5,5.8,67,0.00,,,-99.99,perl,2013-02-11 16:11:00,
2013-02-11 11:16:00,46.4,35.6,29.61,South,170,3.3,5.4,66,0.00,,,-99.99,perl,2013-02-11 16:16:00,
2013-02-11 11:21:00,46.8,35.6,29.61,SSW,195,3.1,5.4,65,0.00,,,-99.99,perl,2013-02-11 16:21:00,
2013-02-11 11:26:00,46.8,35.6,29.61,SSW,208,2.1,4.5,65,0.00,,,-99.99,perl,2013-02-11 16:26:00,
2013-02-11 11:31:00,46.9,35.6,29.61,South,173,6.0,8.1,65,0.00,,,-99.99,perl,2013-02-11 16:31:00,
2013-02-11 11:36:00,47.1,35.6,29.61,South,188,3.8,4.0,64,0.00,,,-99.99,perl,2013-02-11 16:36:00,
2013-02-11 11:41:00,47.1,35.6,29.61,South,170,4.0,6.3,64,0.00,,,-99.99,perl,2013-02-11 16:41:00,
2013-02-11 11:46:00,47.3,37.4,29.61,SSE,168,4.5,5.4,68,0.00,,,-99.99,perl,2013-02-11 16:46:00,
2013-02-11 11:51:00,47.5,37.4,29.61,South,189,3.8,4.0,67,0.00,,,-99.99,perl,2013-02-11 16:51:00,
2013-02-11 11:56:00,48.0,37.4,29.61,South,170,3.1,5.4,66,0.00,,,-99.99,perl,2013-02-11 16:56:00,
2013-02-11 12:01:00,48.0,35.6,29.58,SSW,202,3.7,5.4,62,0.00,,,-99.99,perl,2013-02-11 17:01:00,
2013-02-11 12:06:00,48.0,35.6,29.58,SW,227,4.0,5.8,62,0.00,,,-99.99,perl,2013-02-11 17:06:00,
2013-02-11 12:11:00,48.4,35.6,29.58,SSW,198,3.6,4.0,61,0.00,,,-99.99,perl,2013-02-11 17:11:00,
2013-02-11 12:16:00,48.4,35.6,29.55,SSW,199,3.6,4.0,61,0.00,,,-99.99,perl,2013-02-11 17:16:00,
2013-02-11 12:21:00,48.6,35.6,29.55,SSW,210,4.0,6.3,61,0.00,,,-99.99,perl,2013-02-11 17:21:00,
2013-02-11 12:26:00,48.7,35.6,29.55,SSE,167,4.4,5.8,61,0.00,,,-99.99,perl,2013-02-11 17:26:00,
2013-02-11 12:31:00,48.9,35.6,29.55,South,188,3.1,4.9,60,0.00,,,-99.99,perl,2013-02-11 17:31:00,
2013-02-11 12:37:00,49.3,37.4,29.55,South,178,3.1,4.9,63,0.00,,,-99.99,perl,2013-02-11 17:37:00,
2013-02-11 12:42:00,49.5,35.6,29.55,South,185,3.1,5.8,59,0.00,,,-99.99,perl,2013-02-11 17:42:00,
2013-02-11 12:47:00,49.3,35.6,29.52,South,183,3.1,4.0,59,0.00,,,-99.99,perl,2013-02-11 17:47:00,
2013-02-11 12:52:00,48.4,35.6,29.52,SSE,161,2.9,4.9,61,0.00,,,-99.99,perl,2013-02-11 17:52:00,
2013-02-11 12:57:00,48.4,35.6,29.52,SSW,212,1.3,4.0,61,0.00,,,-99.99,perl,2013-02-11 17:57:00,
2013-02-11 13:03:00,49.3,37.4,29.52,South,191,3.4,4.9,63,0.00,,,-99.99,perl,2013-02-11 18:03:00,
2013-02-11 13:08:00,49.6,37.4,29.52,South,188,1.3,5.4,63,0.00,,,-99.99,perl,2013-02-11 18:08:00,
2013-02-11 13:13:00,50.0,35.6,29.52,SSE,160,2.7,4.0,58,0.00,,,-99.99,perl,2013-02-11 18:13:00,
2013-02-11 13:18:00,50.2,35.6,29.52,South,184,0.0,0.0,57,0.00,,,-99.99,perl,2013-02-11 18:18:00,
2013-02-11 13:23:00,50.2,35.6,29.52,SW,225,1.3,4.9,57,0.00,,,-99.99,perl,2013-02-11 18:23:00,
2013-02-11 13:28:00,50.4,35.6,29.52,South,176,3.4,4.0,57,0.00,,,-99.99,perl,2013-02-11 18:28:00,
2013-02-11 13:34:00,50.2,33.8,29.52,SW,230,2.2,3.6,53,0.00,,,-99.99,perl,2013-02-11 18:34:00,
2013-02-11 13:39:00,50.0,33.8,29.52,SW,216,3.4,8.7,53,0.00,,,-99.99,perl,2013-02-11 18:39:00,
2013-02-11 13:44:00,49.5,37.4,29.52,SW,215,6.9,10.5,63,0.00,,,-99.99,perl,2013-02-11 18:44:00,
2013-02-11 13:49:00,47.1,37.4,29.52,West,259,11.0,15.0,69,0.00,,,-99.99,perl,2013-02-11 18:49:00,
2013-02-11 13:54:00,44.2,37.4,29.52,WSW,254,9.2,12.3,77,0.00,,,-99.99,perl,2013-02-11 18:54:00,
2013-02-11 13:59:00,43.3,35.6,29.55,WSW,247,9.7,12.8,74,0.00,,,-99.99,perl,2013-02-11 18:59:00,
2013-02-11 14:04:00,43.2,33.8,29.55,West,276,11.0,14.5,69,0.00,,,-99.99,perl,2013-02-11 19:04:00,
2013-02-11 14:09:00,43.7,35.6,29.55,West,273,10.7,15.0,73,0.00,,,-99.99,perl,2013-02-11 19:09:00,
2013-02-11 14:14:00,43.5,32.0,29.58,WSW,244,10.1,11.0,64,0.00,,,-99.99,perl,2013-02-11 19:14:00,
2013-02-11 14:19:00,43.0,-99.9,29.58,SW,227,11.9,13.2,-999,0.00,,,-99.99,perl,2013-02-11 19:19:00,
2013-02-11 14:25:00,42.8,-99.9,29.58,SW,236,9.4,17.4,-999,0.00,,,-99.99,perl,2013-02-11 19:25:00,
2013-02-11 14:30:00,42.4,-99.9,29.58,WSW,253,8.9,11.0,-999,0.00,,,-99.99,perl,2013-02-11 19:30:00,
2013-02-11 14:35:00,42.4,-99.9,29.58,SW,233,13.0,15.4,-999,0.00,,,-99.99,perl,2013-02-11 19:35:00,
2013-02-11 14:40:00,42.3,-99.9,29.58,WSW,256,10.7,12.8,-999,0.00,,,-99.99,perl,2013-02-11 19:40:00,
2013-02-11 14:45:00,42.1,-99.9,29.58,West,260,6.3,7.6,-999,0.00,,,-99.99,perl,2013-02-11 19:45:00,
2013-02-11 14:50:00,41.7,-99.9,29.58,West,259,7.4,15.0,-999,0.00,,,-99.99,perl,2013-02-11 19:50:00,
2013-02-11 14:56:00,41.5,-99.9,29.58,WSW,241,9.9,13.2,-999,0.00,,,-99.99,perl,2013-02-11 19:56:00,
2013-02-11 15:01:00,41.5,-99.9,29.58,West,268,10.8,17.4,-999,0.00,,,-99.99,perl,2013-02-11 20:01:00,
2013-02-11 15:06:00,41.2,-99.9,29.58,West,269,13.2,16.3,-999,0.00,,,-99.99,perl,2013-02-11 20:06:00,
2013-02-11 15:12:00,40.8,-99.9,29.58,West,276,13.6,22.4,-999,0.00,,,-99.99,perl,2013-02-11 20:12:00,
2013-02-11 15:17:00,40.6,-99.9,29.58,WSW,239,10.6,12.3,-999,0.00,,,-99.99,perl,2013-02-11 20:17:00,
2013-02-11 15:22:00,40.5,-99.9,29.58,West,269,12.8,17.4,-999,0.00,,,-99.99,perl,2013-02-11 20:22:00,
2013-02-11 15:27:00,40.3,-99.9,29.58,West,266,12.1,16.3,-999,0.00,,,-99.99,perl,2013-02-11 20:27:00,
2013-02-11 15:32:00,40.5,-99.9,29.58,WNW,290,9.8,14.5,-999,0.00,,,-99.99,perl,2013-02-11 20:32:00,
2013-02-11 15:37:00,40.1,-99.9,29.58,SW,230,10.7,12.8,-999,0.00,,,-99.99,perl,2013-02-11 20:37:00,
2013-02-11 15:42:00,39.7,-99.9,29.58,West,264,14.3,17.4,-999,0.00,,,-99.99,perl,2013-02-11 20:42:00,
2013-02-11 15:47:00,39.4,-99.9,29.61,West,259,10.4,10.4,-999,0.00,,,-99.99,perl,2013-02-11 20:47:00,
2013-02-11 15:52:00,39.2,-99.9,29.61,WSW,247,11.9,11.9,-999,0.00,,,-99.99,perl,2013-02-11 20:52:00,
2013-02-11 15:57:00,39.0,-99.9,29.61,WSW,258,12.3,14.1,-999,0.00,,,-99.99,perl,2013-02-11 20:57:00,
2013-02-11 16:02:00,38.8,-99.9,29.61,WNW,295,9.3,9.3,-999,0.00,,,-99.99,perl,2013-02-11 21:02:00,
2013-02-11 16:07:00,38.7,-99.9,29.61,SW,234,10.5,11.0,-999,0.00,,,-99.99,perl,2013-02-11 21:07:00,
2013-02-11 16:12:00,38.5,-99.9,29.61,WSW,244,8.8,15.4,-999,0.00,,,-99.99,perl,2013-02-11 21:12:00,
2013-02-11 16:17:00,38.5,-99.9,29.61,WSW,244,12.6,19.7,-999,0.00,,,-99.99,perl,2013-02-11 21:17:00,
2013-02-11 16:22:00,38.1,-99.9,29.61,WSW,248,11.2,11.2,-999,0.00,,,-99.99,perl,2013-02-11 21:22:00,
2013-02-11 16:27:00,38.1,-99.9,29.61,West,267,11.4,19.7,-999,0.00,,,-99.99,perl,2013-02-11 21:27:00,
2013-02-11 16:32:00,37.9,-99.9,29.61,WSW,251,13.6,17.0,-999,0.00,,,-99.99,perl,2013-02-11 21:32:00,
2013-02-11 16:37:00,37.9,-99.9,29.61,WSW,258,12.1,13.2,-999,0.00,,,-99.99,perl,2013-02-11 21:37:00,
2013-02-11 16:42:00,37.8,-99.9,29.61,West,259,11.4,17.4,-999,0.00,,,-99.99,perl,2013-02-11 21:42:00,
2013-02-11 16:47:00,37.6,-99.9,29.64,WSW,253,13.4,19.7,-999,0.00,,,-99.99,perl,2013-02-11 21:47:00,
2013-02-11 16:52:00,37.6,-99.9,29.64,WSW,255,9.4,16.8,-999,0.00,,,-99.99,perl,2013-02-11 21:52:00,
2013-02-11 16:58:00,37.6,-99.9,29.64,WSW,255,13.0,18.8,-999,0.00,,,-99.99,perl,2013-02-11 21:58:00,
2013-02-11 17:03:00,37.6,-99.9,29.64,West,264,8.4,12.3,-999,0.00,,,-99.99,perl,2013-02-11 22:03:00,
2013-02-11 17:09:00,37.6,-99.9,29.64,WSW,258,10.6,13.2,-999,0.00,,,-99.99,perl,2013-02-11 22:09:00,
2013-02-11 17:14:00,37.6,-99.9,29.64,WSW,258,9.3,16.3,-999,0.00,,,-99.99,perl,2013-02-11 22:14:00,
2013-02-11 17:19:00,37.6,-99.9,29.64,West,278,10.5,15.0,-999,0.00,,,-99.99,perl,2013-02-11 22:19:00,
2013-02-11 17:24:00,37.6,-99.9,29.64,WSW,256,9.2,16.3,-999,0.00,,,-99.99,perl,2013-02-11 22:24:00,
2013-02-11 17:29:00,37.6,-99.9,29.64,WSW,242,11.2,15.4,-999,0.00,,,-99.99,perl,2013-02-11 22:29:00,
2013-02-11 17:34:00,37.6,-99.9,29.64,WNW,283,7.3,9.6,-999,0.00,,,-99.99,perl,2013-02-11 22:34:00,
2013-02-11 17:39:00,37.4,-99.9,29.64,WSW,243,7.9,13.2,-999,0.00,,,-99.99,perl,2013-02-11 22:39:00,
2013-02-11 17:44:00,37.4,-99.9,29.64,SW,227,10.1,15.9,-999,0.00,,,-99.99,perl,2013-02-11 22:44:00,
2013-02-11 17:49:00,37.4,-99.9,29.64,WSW,238,14.7,14.7,-999,0.00,,,-99.99,perl,2013-02-11 22:49:00,
2013-02-11 17:54:00,37.2,-99.9,29.64,WNW,284,10.5,21.9,-999,0.00,,,-99.99,perl,2013-02-11 22:54:00,
2013-02-11 17:59:00,36.9,-99.9,29.64,West,266,11.2,18.8,-999,0.00,,,-99.99,perl,2013-02-11 22:59:00,
2013-02-11 18:05:00,36.9,-99.9,29.64,West,271,9.8,15.4,-999,0.00,,,-99.99,perl,2013-02-11 23:05:00,
2013-02-11 18:10:00,36.7,-99.9,29.64,WSW,246,10.4,13.2,-999,0.00,,,-99.99,perl,2013-02-11 23:10:00,
2013-02-11 18:15:00,36.7,-99.9,29.64,West,266,13.0,17.0,-999,0.00,,,-99.99,perl,2013-02-11 23:15:00,
2013-02-11 18:20:00,36.7,-99.9,29.64,WSW,256,11.0,25.5,-999,0.00,,,-99.99,perl,2013-02-11 23:20:00,
2013-02-11 18:25:00,36.7,-99.9,29.64,SW,226,11.9,13.2,-999,0.00,,,-99.99,perl,2013-02-11 23:25:00,
2013-02-11 18:30:00,36.7,-99.9,29.64,West,263,10.7,17.9,-999,0.00,,,-99.99,perl,2013-02-11 23:30:00,
2013-02-11 18:35:00,36.7,-99.9,29.64,WSW,255,14.2,16.3,-999,0.00,,,-99.99,perl,2013-02-11 23:35:00,
2013-02-11 18:40:00,36.5,-99.9,29.64,WSW,247,10.4,12.8,-999,0.00,,,-99.99,perl,2013-02-11 23:40:00,
2013-02-11 18:45:00,36.3,-99.9,29.64,WSW,248,15.0,16.8,-999,0.00,,,-99.99,perl,2013-02-11 23:45:00,
2013-02-11 18:50:00,36.1,-99.9,29.64,SW,225,10.2,10.2,-999,0.00,,,-99.99,perl,2013-02-11 23:50:00,
2013-02-11 18:55:00,36.1,-99.9,29.64,West,272,13.7,27.1,-999,0.00,,,-99.99,perl,2013-02-11 23:55:00,
2013-02-11 19:00:00,36.0,-99.9,29.64,WSW,253,13.0,17.4,-999,0.00,,,-99.99,perl,2013-02-12 00:00:00,
2013-02-11 19:05:00,35.8,-99.9,29.64,West,266,9.4,17.4,-999,0.00,,,-99.99,perl,2013-02-12 00:05:00,
2013-02-11 19:10:00,35.6,-99.9,29.64,WSW,250,15.8,19.7,-999,0.00,,,-99.99,perl,2013-02-12 00:10:00,
2013-02-11 19:15:00,35.6,-99.9,29.67,West,263,14.7,22.8,-999,0.00,,,-99.99,perl,2013-02-12 00:15:00,
2013-02-11 19:20:00,35.4,-99.9,29.67,WSW,245,13.6,18.8,-999,0.00,,,-99.99,perl,2013-02-12 00:20:00,
2013-02-11 19:25:00,35.4,-99.9,29.67,West,277,12.1,15.4,-999,0.00,,,-99.99,perl,2013-02-12 00:25:00,
2013-02-11 19:31:00,35.4,-99.9,29.67,WSW,246,9.4,12.3,-999,0.00,,,-99.99,perl,2013-02-12 00:31:00,
2013-02-11 19:36:00,35.6,-99.9,29.67,WSW,250,10.5,15.4,-999,0.00,,,-99.99,perl,2013-02-12 00:36:00,
2013-02-11 19:41:00,35.8,-99.9,29.67,West,269,9.6,13.2,-999,0.00,,,-99.99,perl,2013-02-12 00:41:00,
2013-02-11 19:46:00,35.8,-99.9,29.67,SW,235,13.0,22.4,-999,0.00,,,-99.99,perl,2013-02-12 00:46:00,
2013-02-11 19:52:00,36.0,-99.9,29.67,West,278,11.4,14.5,-999,0.00,,,-99.99,perl,2013-02-12 00:52:00,
2013-02-11 19:57:00,36.0,-99.9,29.67,WSW,252,9.6,12.3,-999,0.00,,,-99.99,perl,2013-02-12 00:57:00,
2013-02-11 20:02:00,36.0,-99.9,29.67,SW,226,9.7,17.4,-999,0.00,,,-99.99,perl,2013-02-12 01:02:00,
2013-02-11 20:07:00,36.1,-99.9,29.67,West,269,11.2,11.4,-999,0.00,,,-99.99,perl,2013-02-12 01:07:00,
2013-02-11 20:12:00,36.1,-99.9,29.67,WSW,244,10.5,12.3,-999,0.00,,,-99.99,perl,2013-02-12 01:12:00,
2013-02-11 20:17:00,36.3,-99.9,29.67,West,270,15.5,15.5,-999,0.00,,,-99.99,perl,2013-02-12 01:17:00,
2013-02-11 20:22:00,36.3,-99.9,29.67,WSW,251,12.2,20.1,-999,0.00,,,-99.99,perl,2013-02-12 01:22:00,
2013-02-11 20:27:00,36.3,-99.9,29.67,West,263,11.9,20.1,-999,0.00,,,-99.99,perl,2013-02-12 01:27:00,
2013-02-11 20:32:00,36.1,-99.9,29.67,WSW,237,10.1,12.3,-999,0.00,,,-99.99,perl,2013-02-12 01:32:00,
2013-02-11 20:37:00,36.1,-99.9,29.67,WSW,245,10.3,10.5,-999,0.00,,,-99.99,perl,2013-02-12 01:37:00,
2013-02-11 20:42:00,36.3,-99.9,29.67,SW,233,11.2,14.5,-999,0.00,,,-99.99,perl,2013-02-12 01:42:00,
2013-02-11 20:47:00,36.1,-99.9,29.67,West,262,12.6,17.9,-999,0.00,,,-99.99,perl,2013-02-12 01:47:00,
2013-02-11 20:52:00,36.1,-99.9,29.67,West,268,8.4,14.1,-999,0.00,,,-99.99,perl,2013-02-12 01:52:00,
2013-02-11 20:58:00,36.1,-99.9,29.67,WSW,247,14.4,17.4,-999,0.00,,,-99.99,perl,2013-02-12 01:58:00,
2013-02-11 21:04:00,36.0,-99.9,29.67,SW,228,8.9,11.9,-999,0.00,,,-99.99,perl,2013-02-12 02:04:00,
2013-02-11 21:09:00,35.8,-99.9,29.67,West,271,9.2,17.4,-999,0.00,,,-99.99,perl,2013-02-12 02:09:00,
2013-02-11 21:14:00,35.8,-99.9,29.67,WSW,253,14.8,16.8,-999,0.00,,,-99.99,perl,2013-02-12 02:14:00,
2013-02-11 21:19:00,35.8,-99.9,29.67,West,264,12.5,20.1,-999,0.00,,,-99.99,perl,2013-02-12 02:19:00,
2013-02-11 21:24:00,35.6,-99.9,29.67,WSW,248,8.2,19.7,-999,0.00,,,-99.99,perl,2013-02-12 02:24:00,
2013-02-11 21:29:00,35.6,-99.9,29.67,WSW,242,11.9,18.3,-999,0.00,,,-99.99,perl,2013-02-12 02:29:00,
2013-02-11 21:35:00,35.4,-99.9,29.67,West,262,14.4,22.4,-999,0.00,,,-99.99,perl,2013-02-12 02:35:00,
2013-02-11 21:40:00,35.4,-99.9,29.67,WSW,237,11.0,15.4,-999,0.00,,,-99.99,perl,2013-02-12 02:40:00,
2013-02-11 21:45:00,35.2,-99.9,29.67,WSW,246,9.8,12.8,-999,0.00,,,-99.99,perl,2013-02-12 02:45:00,
2013-02-11 21:50:00,35.2,-99.9,29.67,WSW,244,10.6,10.6,-999,0.00,,,-99.99,perl,2013-02-12 02:50:00,
2013-02-11 21:55:00,35.1,-99.9,29.67,West,267,11.4,13.6,-999,0.00,,,-99.99,perl,2013-02-12 02:55:00,
2013-02-11 22:00:00,34.9,-99.9,29.67,West,259,10.8,17.4,-999,0.00,,,-99.99,perl,2013-02-12 03:00:00,
2013-02-11 22:05:00,34.9,-99.9,29.67,West,260,16.3,18.8,-999,0.00,,,-99.99,perl,2013-02-12 03:05:00,
2013-02-11 22:10:00,34.9,-99.9,29.67,WSW,239,13.2,13.2,-999,0.00,,,-99.99,perl,2013-02-12 03:10:00,
2013-02-11 22:15:00,34.7,-99.9,29.67,West,259,11.2,19.2,-999,0.00,,,-99.99,perl,2013-02-12 03:15:00,
2013-02-11 22:20:00,34.5,-99.9,29.67,WSW,250,14.3,19.7,-999,0.00,,,-99.99,perl,2013-02-12 03:20:00,
2013-02-11 22:25:00,34.5,-99.9,29.67,WSW,250,13.6,17.4,-999,0.00,,,-99.99,perl,2013-02-12 03:25:00,
2013-02-11 22:30:00,34.5,-99.9,29.64,SW,230,12.8,13.2,-999,0.00,,,-99.99,perl,2013-02-12 03:30:00,
2013-02-11 22:35:00,34.7,-99.9,29.64,WSW,254,11.7,17.0,-999,0.00,,,-99.99,perl,2013-02-12 03:35:00,
2013-02-11 22:40:00,34.7,-99.9,29.64,WSW,248,10.3,11.9,-999,0.00,,,-99.99,perl,2013-02-12 03:40:00,
2013-02-11 22:45:00,34.5,-99.9,29.64,WSW,244,10.3,15.0,-999,0.00,,,-99.99,perl,2013-02-12 03:45:00,
2013-02-11 22:50:00,34.3,-99.9,29.64,WSW,254,12.3,16.3,-999,0.00,,,-99.99,perl,2013-02-12 03:50:00,
2013-02-11 22:55:00,34.2,-99.9,29.64,WSW,255,9.4,11.0,-999,0.00,,,-99.99,perl,2013-02-12 03:55:00,
2013-02-11 23:00:00,34.0,-99.9,29.64,WSW,253,13.5,15.0,-999,0.00,,,-99.99,perl,2013-02-12 04:00:00,
2013-02-11 23:05:00,33.8,-99.9,29.64,WSW,241,11.0,12.8,-999,0.00,,,-99.99,perl,2013-02-12 04:05:00,
2013-02-11 23:10:00,33.8,-99.9,29.64,SW,235,8.5,10.5,-999,0.00,,,-99.99,perl,2013-02-12 04:10:00,
2013-02-11 23:15:00,33.6,-99.9,29.64,WSW,238,10.1,15.4,-999,0.00,,,-99.99,perl,2013-02-12 04:15:00,
2013-02-11 23:20:00,33.6,-99.9,29.64,WSW,251,9.2,10.5,-999,0.00,,,-99.99,perl,2013-02-12 04:20:00,
2013-02-11 23:26:00,33.4,-99.9,29.64,WSW,248,7.5,9.2,-999,0.00,,,-99.99,perl,2013-02-12 04:26:00,
2013-02-11 23:31:00,33.4,-99.9,29.64,WSW,257,12.7,17.4,-999,0.00,,,-99.99,perl,2013-02-12 04:31:00,
2013-02-11 23:36:00,33.3,-99.9,29.64,SW,234,9.8,23.3,-999,0.00,,,-99.99,perl,2013-02-12 04:36:00,
2013-02-11 23:41:00,33.3,-99.9,29.64,West,266,12.3,13.2,-999,0.00,,,-99.99,perl,2013-02-12 04:41:00,
2013-02-11 23:46:00,33.3,-99.9,29.64,West,259,7.9,13.2,-999,0.00,,,-99.99,perl,2013-02-12 04:46:00,
2013-02-11 23:51:00,33.3,-99.9,29.64,SW,233,11.4,11.4,-999,0.00,,,-99.99,perl,2013-02-12 04:51:00,
2013-02-11 23:56:00,33.3,-99.9,29.64,WSW,252,11.3,17.4,-999,0.00,,,-99.99,perl,2013-02-12 04:56:00,